San Francisco, CA

10:35 AM PDT on August 23, 2014 (GMT -0700)
NEMA | Change Station
CLOSE
Current Station
Personal Weather Station
Location: San Francisco, CA
Elevation: 102 ft
Nearby Weather Stations

Elev 102 ft 37.78 °N, 122.42 °W | Updated 14 minutes ago

Scattered Clouds
Scattered Clouds
71.2 °F
Feels Like 75 °F
N
-
Wind Variable Wind from North

Today
High -- | Low -- °F
--% Chance of Precip.
Yesterday
High -- | Low -- °F
Precip. -- in
6:32 AM 7:51 PM
Waning Crescent, 3% visible
Pressure 29.96 in
Visibility 10.0 miles
Clouds Few 1400 ft
Scattered Clouds 1900 ft
Heat Index 75 °F
Dew Point 57 °F
Humidity 66%
Rainfall -999.00 in
Snow Depth Not available.
UV 4 out of 12
Pollen 5.90 out of 12
Ozone Good
PM2.5 Good
Flu Activity Not available.
METAR KSFO 231656Z 06003KT 10SM FEW014 SCT019 19/14 A2996 RMK AO2 SLP146 T01890139 $

More Conditions Fewer Conditions

Pressure 29.96 in
Visibility 10.0 miles
Clouds Few 1400 ft
Scattered Clouds 1900 ft
Heat Index 75 °F
Dew Point 57 °F
Humidity 66%
Rainfall -999.00 in
Snow Depth Not available.
UV 4 out of 12
Pollen 5.90 out of 12
Ozone Good
PM2.5 Good
Flu Activity Not available.
METAR KSFO 231656Z 06003KT 10SM FEW014 SCT019 19/14 A2996 RMK AO2 SLP146 T01890139 $

More Conditions Fewer Conditions

10-Day Weather Forecast

Almanac

Astronomy

Aug. 23, 2014 Rise Set
Actual Time 6:32 AM PDT 7:51 PM PDT
Civil Twilight 6:04 AM PDT 8:19 PM PDT
Nautical Twilight 5:31 AM PDT 8:51 PM PDT
Astronomical Twilight 4:57 AM PDT 9:25 PM PDT
Moon 4:53 AM PDT 6:39 PM PDT
Length of Visible Light 14h 14m
Length of Day
13h 19m
Tomorrow will be 2m 16s shorter.
Waning Crescent, 3% of the Moon is Illuminated
Today
Waning Crescent
Aug 25
New
Sep 2
First Quarter
Sep 8
Full
Sep 15
Last Quarter

Today's Extremes

State Highs State Lows

Community

WunderPhotos

Upload Photos

1,746,536 photos uploaded!

WunderBlogs® & News

By Dr. Jeff Masters
Director of Meteorology, Weather Underground
By Kari Strenfel
Meteorologist, Weather Underground
By Christopher C. Burt
Weather Historian, Weather Underground
August 23, 2014
August 23, 2014
August 23, 2014

Nearby

Air Quality

  Air Quality AQ Index Pollutant
Yesterday Good
OZONE
Yesterday Good
PM2.5
Current Good
OZONE
Current Good
PM2.5
Saturday Good
PM2.5
Sunday Moderate
PM2.5
Monday Moderate
PM2.5
Tuesday Moderate
PM2.5
Wednesday Moderate
PM2.5

Snow Depth

Station Depth Elevation
Forestdale Creek 0 in 8029 ft
Leavitt Lake 0 in 9400 ft
Sonora Pass 0 in 8800 ft
Summit Meadow 0 in 9122 ft
Adin Mountain 0 in 6200 ft

Earthquake Activity

City Distance Mag. Time & Date
Coalinga, California 155 miles 2.5 7:03 AM PDT
2014-08-18
Berkeley, California 11 miles 2.6 7:41 PM PDT
2014-08-16
Minimum magnitude displayed is 2.5.

Coastal Water Temperatures

Place Temperature
No Stations Reporting

Nearby Weather Stations